Latest Weather Observations for Warragul (Nilma North)

IDV60801

Issued at 11:32 am EST Friday 26 August 2016 (issued every 30 minutes, with the page automatically refreshed every 10 minutes)

About weather observations | Map of weather stations | Latest weather observations for VIC | Other Formats
Station Details ID: 085313 Name: NILMA NORTH (WARRAGUL) Lat: -38.13 Lon: 145.99 Height: 134.11 m
Data from the previous 72 hours. | See also: Recent months for locations in Victoria
Date/Time
EST
Temp
°C
App
Temp
°C
Dew
Point
°C
Rel
Hum
%
Delta-T
°C
Wind Press
QNH
hPa
Press
MSL
hPa
Rain since
9am
mm
Dir  Spd
km/h
Gust
km/h
Spd
kts
Gust
kts
26/11:30am 9.9 5.8 6.1 77 1.8 W 17 24 9 13 1020.9 1021.2 0.0
26/11:00am 10.8 6.5 7.1 78 1.8 WNW 19 30 10 16 1021.0 1021.3 0.0
26/10:30am 9.8 5.3 6.9 82 1.4 WNW 20 32 11 17 1021.0 1021.3 0.0
26/10:00am 10.2 7.1 7.4 83 1.3 WNW 13 20 7 11 1021.0 1021.3 0.0
26/09:30am 9.0 6.6 7.1 88 0.9 WNW 9 17 5 9 1021.1 1021.4 0.0
26/09:00am 8.6 5.0 6.7 88 0.9 WNW 15 26 8 14 1021.1 1021.4 4.6
26/08:30am 7.4 4.8 6.3 93 0.5 WNW 9 17 5 9 1021.1 1021.4 4.6
26/08:00am 6.5 3.5 5.9 96 0.3 NW 11 17 6 9 1020.8 1021.0 4.6
26/07:30am 6.6 4.0 6.0 96 0.3 WNW 9 17 5 9 1020.7 1020.9 4.6
26/07:00am 6.4 3.8 6.0 97 0.2 WNW 9 13 5 7 1020.3 1020.5 4.4
26/06:30am 5.8 3.7 5.7 99 0.0 NW 6 9 3 5 1019.9 1020.1 4.4
26/06:00am 5.6 3.8 5.5 99 0.0 NW 4 6 2 3 1019.8 1020.0 4.4
26/05:30am 5.1 4.0 5.0 99 0.0 CALM 0 4 0 2 1019.7 1019.9 4.4
26/05:00am 5.1 4.0 5.0 99 0.0 CALM 0 0 0 0 1019.2 1019.4 4.4
26/04:30am 4.9 3.0 4.8 99 0.0 WSW 4 6 2 3 1018.9 1019.1 4.4
26/04:00am 4.1 2.4 3.8 98 0.1 W 2 6 1 3 1018.7 1018.9 4.4
26/03:30am 4.4 2.0 4.1 98 0.1 NW 6 7 3 4 1018.6 1018.8 4.4
26/03:00am 4.7 2.7 4.3 97 0.2 NW 4 6 2 3 1018.6 1018.8 4.4
26/02:30am 5.2 2.9 4.8 97 0.2 NW 6 7 3 4 1018.6 1018.8 4.4
26/02:00am 5.9 3.7 5.5 97 0.2 NW 6 7 3 4 1018.8 1019.0 4.4
26/01:30am 6.2 4.1 5.8 97 0.2 NW 6 9 3 5 1018.9 1019.1 4.4
26/01:00am 6.3 4.2 5.7 96 0.3 NW 6 9 3 5 1018.8 1019.0 4.4
26/12:30am 6.8 4.8 6.2 96 0.3 W 6 7 3 4 1018.9 1019.1 4.2
26/12:00am 6.3 4.6 5.7 96 0.3 NW 4 6 2 3 1018.6 1018.8 3.8
 
Date/Time
EST
Temp
°C
App
Temp
°C
Dew
Point
°C
Rel
Hum
%
Delta-T
°C
Wind Press
QNH
hPa
Press
MSL
hPa
Rain since
9am
mm
Dir  Spd
km/h
Gust
km/h
Spd
kts
Gust
kts
25/11:30pm 6.6 4.4 6.0 96 0.3 NW 7 9 4 5 1018.5 1018.7 3.8
25/11:00pm 6.9 4.9 6.3 96 0.3 WNW 6 9 3 5 1018.4 1018.6 3.8
25/10:30pm 6.5 4.2 5.9 96 0.3 NW 7 13 4 7 1018.4 1018.6 3.6
25/10:00pm 6.3 4.1 5.3 93 0.4 NW 6 7 3 4 1018.5 1018.7 3.4
25/09:30pm 7.0 5.7 6.1 94 0.4 S 2 6 1 3 1018.4 1018.6 3.4
25/09:00pm 6.6 4.5 5.7 94 0.4 WNW 6 9 3 5 1018.1 1018.3 3.4
25/08:30pm 6.1 3.7 5.1 93 0.4 NW 7 11 4 6 1017.8 1018.0 3.4
25/08:00pm 6.0 3.7 5.0 93 0.4 NW 6 7 3 4 1017.6 1017.8 3.4
25/07:30pm 6.4 4.1 5.0 91 0.6 NW 6 9 3 5 1017.3 1017.5 3.2
25/07:00pm 7.4 5.6 5.5 88 0.9 WNW 4 7 2 4 1016.9 1017.1 3.2
25/06:30pm 7.7 5.4 5.7 87 0.9 WNW 7 11 4 6 1016.5 1016.7 3.2
25/06:00pm 8.5 6.1 5.4 81 1.4 W 7 13 4 7 1016.1 1016.3 3.2
25/05:30pm 9.2 6.1 5.4 77 1.7 W 11 19 6 10 1015.7 1015.9 3.2
25/05:00pm 10.5 7.7 5.3 70 2.4 WSW 9 19 5 10 1015.2 1015.4 3.2
25/04:30pm 11.4 8.3 5.5 67 2.7 WSW 11 19 6 10 1014.9 1015.1 3.2
25/04:00pm 11.6 9.0 5.9 68 2.7 WSW 9 15 5 8 1014.7 1014.9 3.2
25/03:30pm 11.3 8.7 6.0 70 2.5 W 9 17 5 9 1014.6 1014.7 3.2
25/03:00pm 10.7 8.7 7.2 79 1.7 WNW 7 11 4 6 1014.5 1014.6 3.2
25/02:30pm 9.1 5.9 5.3 77 1.7 W 11 37 6 20 1014.5 1014.6 3.2
25/02:00pm 9.7 8.1 6.2 79 1.6 NW 4 7 2 4 1014.0 1014.1 3.0
25/01:30pm 8.0 5.8 5.1 82 1.3 WSW 6 9 3 5 1014.1 1014.2 3.0
25/01:00pm 7.3 3.7 5.1 86 1.0 S 13 22 7 12 1014.5 1014.6 0.8
25/12:30pm 9.9 7.0 6.4 79 1.6 WNW 11 19 6 10 1014.1 1014.2 0.0
25/12:00pm 9.4 6.1 6.5 82 1.4 WNW 13 22 7 12 1014.4 1014.5 0.0
25/11:30am 8.5 5.1 6.1 85 1.1 NW 13 20 7 11 1014.6 1014.7 0.0
25/11:00am 7.7 3.0 5.0 83 1.2 W 19 26 10 14 1014.5 1014.6 0.0
25/10:30am 9.0 5.0 6.6 85 1.1 WNW 17 24 9 13 1014.2 1014.3 0.0
25/10:00am 8.4 5.4 6.0 85 1.1 WNW 11 20 6 11 1013.9 1014.0 0.0
25/09:30am 6.9 4.2 5.7 92 0.5 WNW 9 15 5 8 1013.8 1013.9 0.0
25/09:00am 6.7 4.0 5.7 93 0.4 WNW 9 15 5 8 1013.8 1013.9 5.2
25/08:30am 6.3 2.9 5.7 96 0.3 WNW 13 22 7 12 1013.4 1013.6 5.2
25/08:00am 6.7 4.5 6.4 98 0.1 WNW 7 11 4 6 1013.3 1013.5 4.6
25/07:30am 5.9 3.7 5.3 96 0.3 WNW 6 9 3 5 1012.8 1013.0 4.6
25/07:00am 6.0 3.7 5.9 99 0.0 W 7 11 4 6 1012.8 1013.0 3.2
25/06:30am 5.5 3.3 5.2 98 0.1 NW 6 9 3 5 1012.4 1012.6 2.4
25/06:00am 5.3 3.4 4.9 97 0.2 SSW 4 9 2 5 1012.2 1012.4 1.0
25/05:30am 5.0 3.0 4.6 97 0.2 WNW 4 6 2 3 1012.0 1012.2 0.2
25/05:00am 4.2 2.0 3.6 96 0.3 W 4 4 2 2 1011.8 1012.0 0.2
25/04:30am 4.1 1.9 3.5 96 0.2 W 4 7 2 4 1011.8 1012.0 0.2
25/04:00am 3.6 1.3 3.0 96 0.2 NW 4 7 2 4 1011.7 1011.9 0.2
25/03:30am 4.3 1.6 3.6 95 0.3 NW 7 9 4 5 1011.8 1012.0 0.2
25/03:00am 4.8 2.3 3.9 94 0.4 NW 6 7 3 4 1011.9 1012.1 0.2
25/02:30am 5.6 3.7 4.9 95 0.3 WNW 4 6 2 3 1012.0 1012.2 0.2
25/02:00am 5.0 2.4 4.4 96 0.3 SW 7 19 4 10 1012.4 1012.6 0.0
25/01:30am 5.0 3.4 4.4 96 0.3 WNW 2 6 1 3 1012.3 1012.5 0.0
25/01:00am 5.2 2.8 4.5 95 0.3 NW 6 6 3 3 1012.4 1012.6 0.0
25/12:30am 5.3 3.3 4.6 95 0.3 NW 4 6 2 3 1012.6 1012.8 0.0
25/12:00am 5.4 3.4 4.5 94 0.4 NW 4 7 2 4 1012.7 1012.9 0.0
 
Date/Time
EST
Temp
°C
App
Temp
°C
Dew
Point
°C
Rel
Hum
%
Delta-T
°C
Wind Press
QNH
hPa
Press
MSL
hPa
Rain since
9am
mm
Dir  Spd
km/h
Gust
km/h
Spd
kts
Gust
kts
24/11:30pm 5.8 3.9 4.9 94 0.4 NW 4 6 2 3 1012.9 1013.1 0.0
24/11:00pm 5.9 3.9 4.5 91 0.6 NW 4 4 2 2 1013.0 1013.2 0.0
24/10:30pm 6.6 4.8 5.2 91 0.6 NW 4 6 2 3 1013.1 1013.3 0.0
24/10:00pm 6.8 4.6 5.4 91 0.6 NW 6 7 3 4 1013.4 1013.6 0.0
24/09:30pm 6.9 4.7 5.5 91 0.6 NW 6 7 3 4 1013.6 1013.7 0.0
24/09:00pm 7.1 5.3 5.4 89 0.8 NW 4 7 2 4 1013.7 1013.8 0.0
24/08:30pm 7.4 5.2 5.5 88 0.9 NW 6 7 3 4 1013.6 1013.7 0.0
24/08:00pm 7.4 5.6 5.5 88 0.9 NW 4 6 2 3 1013.7 1013.8 0.0
24/07:30pm 7.3 5.5 5.3 87 0.9 NW 4 6 2 3 1013.7 1013.8 0.0
24/07:00pm 7.2 5.7 5.0 86 1.0 WNW 2 6 1 3 1013.4 1013.6 0.0
24/06:30pm 7.4 6.3 4.9 84 1.1 CALM 0 0 0 0 1013.2 1013.4 0.0
24/06:00pm 8.0 6.5 4.9 81 1.4 SSW 2 4 1 2 1013.1 1013.3 0.0
24/05:30pm 8.8 7.0 5.2 78 1.6 SSW 4 7 2 4 1012.9 1013.1 0.0
24/05:00pm 10.0 7.3 5.8 75 1.9 SSW 9 15 5 8 1012.6 1012.8 0.0
24/04:30pm 11.4 9.2 6.3 71 2.4 SW 7 15 4 8 1012.5 1012.7 0.0
24/04:00pm 12.1 9.9 6.4 68 2.7 SW 7 15 4 8 1012.5 1012.7 0.0
24/03:30pm 11.4 9.3 6.7 73 2.2 SSW 7 15 4 8 1012.5 1012.7 0.0
24/03:00pm 11.9 10.0 7.6 75 2.1 SW 7 13 4 7 1012.6 1012.8 0.0
24/02:30pm 11.9 9.7 5.1 63 3.1 WNW 6 7 3 4 1012.9 1013.1 0.0
24/02:00pm 12.9 11.5 5.3 60 3.6 SW 2 6 1 3 1013.1 1013.3 0.0
24/01:30pm 11.9 9.7 5.1 63 3.1 SSW 6 9 3 5 1013.3 1013.5 0.0
24/01:00pm 11.7 9.2 4.0 59 3.5 SW 6 9 3 5 1013.6 1013.7 0.0
24/12:30pm 11.5 9.7 3.3 57 3.6 WSW 2 6 1 3 1014.0 1014.1 0.0
24/12:00pm 10.9 9.2 5.9 71 2.3 SSW 4 7 2 4 1014.5 1014.6 0.0
24/11:30am 10.7 9.3 7.4 80 1.6 S 4 7 2 4 1014.8 1015.0 0.0
24/11:00am 8.8 6.9 6.9 88 0.9 SSW 6 7 3 4 1015.0 1015.2 0.0
24/10:30am 8.3 6.6 6.1 86 1.0 SE 4 6 2 3 1015.5 1015.7 0.0
24/10:00am 5.7 4.3 5.6 99 0.0 S 2 4 1 2 1015.8 1016.0 0.0
24/09:30am 4.2 2.9 4.2 100 0.0 CALM 0 4 0 2 1016.1 1016.3 0.0
24/09:00am 2.8 0.9 2.8 100 0.0 E 2 6 1 3 1016.2 1016.4 0.0
24/08:30am 0.7 -1.2 0.7 100 0.0 CALM 0 0 0 0 1016.3 1016.5 0.0
24/08:00am -0.5 -2.6 -0.6 99 0.0 CALM 0 0 0 0 1016.4 1016.6 0.0
24/07:30am -1.1 -3.3 -1.2 99 0.0 CALM 0 2 0 1 1016.4 1016.6 0.0
24/07:00am -1.3 -3.9 -1.4 99 0.0 E 2 4 1 2 1016.4 1016.6 0.0
24/06:30am -1.0 -3.1 -1.1 99 0.0 CALM 0 4 0 2 1016.2 1016.4 0.0
24/06:00am -0.7 -3.6 -0.8 99 0.0 WSW 4 4 2 2 1016.1 1016.3 0.0
24/05:30am -0.4 -2.5 -0.5 99 0.0 CALM 0 0 0 0 1016.1 1016.3 0.0
24/05:00am 0.2 -2.5 0.1 99 0.0 ESE 4 6 2 3 1016.0 1016.2 0.0
24/04:30am 0.0 -2.4 -0.3 98 0.1 SE 2 6 1 3 1016.1 1016.3 0.0
24/04:00am 1.0 -0.8 0.9 99 0.0 CALM 0 4 0 2 1016.0 1016.2 0.0
24/03:30am 1.1 -0.8 0.8 98 0.1 CALM 0 0 0 0 1016.0 1016.2 0.0
24/03:00am 1.4 -0.4 1.3 99 0.0 CALM 0 0 0 0 1016.2 1016.4 0.0
24/02:30am 0.9 -1.0 0.5 97 0.1 CALM 0 0 0 0 1016.5 1016.7 0.0
24/02:00am 1.5 -0.3 1.1 97 0.2 CALM 0 0 0 0 1016.7 1016.9 0.0
24/01:30am 1.2 -0.7 0.8 97 0.1 CALM 0 0 0 0 1017.1 1017.3 0.0
24/01:00am 2.4 0.3 2.0 97 0.2 SE 2 2 1 1 1017.3 1017.5 0.0
24/12:30am 2.2 0.5 1.6 96 0.2 CALM 0 0 0 0 1017.3 1017.5 0.0
24/12:00am 2.6 0.9 1.7 94 0.4 CALM 0 0 0 0 1017.5 1017.7 0.0
 
Date/Time
EST
Temp
°C
App
Temp
°C
Dew
Point
°C
Rel
Hum
%
Delta-T
°C
Wind Press
QNH
hPa
Press
MSL
hPa
Rain since
9am
mm
Dir  Spd
km/h
Gust
km/h
Spd
kts
Gust
kts
23/11:30pm 3.5 2.0 2.8 95 0.3 CALM 0 0 0 0 1017.3 1017.5 0.0
23/11:00pm 4.2 2.8 3.5 95 0.3 CALM 0 0 0 0 1017.4 1017.6 0.0
23/10:30pm 4.7 3.3 3.8 94 0.4 CALM 0 0 0 0 1017.3 1017.5 0.0
23/10:00pm 5.4 4.2 4.5 94 0.4 CALM 0 4 0 2 1017.4 1017.6 0.0
23/09:30pm 4.7 3.2 3.2 90 0.6 CALM 0 0 0 0 1017.6 1017.8 0.0
23/09:00pm 5.6 4.2 3.8 88 0.8 CALM 0 2 0 1 1017.7 1017.9 0.0
23/08:30pm 5.5 4.0 2.8 83 1.1 CALM 0 0 0 0 1017.8 1018.0 0.0
23/08:00pm 7.3 6.0 4.1 80 1.4 CALM 0 0 0 0 1017.6 1017.8 0.0
23/07:30pm 6.8 5.4 3.8 81 1.3 CALM 0 0 0 0 1017.5 1017.7 0.0
23/07:00pm 7.7 6.3 3.7 76 1.7 CALM 0 0 0 0 1017.4 1017.6 0.0
23/06:30pm 8.3 6.6 3.9 74 1.9 WSW 2 4 1 2 1017.3 1017.5 0.0
23/06:00pm 9.3 7.6 4.1 70 2.3 SSW 2 6 1 3 1017.0 1017.2 0.0
23/05:30pm 10.9 8.2 3.5 60 3.3 WSW 7 13 4 7 1017.0 1017.2 0.0
23/05:00pm 12.2 10.3 4.7 60 3.4 SW 4 7 2 4 1016.9 1017.1 0.0
23/04:30pm 11.7 9.4 4.7 62 3.2 S 6 9 3 5 1016.7 1016.9 0.0
23/04:00pm 11.8 9.7 5.7 66 2.9 S 6 7 3 4 1016.7 1016.9 0.0
23/03:30pm 12.0 10.4 4.7 61 3.4 SW 2 6 1 3 1016.3 1016.5 0.0
23/03:00pm 12.1 10.4 3.9 57 3.7 SE 2 9 1 5 1016.0 1016.2 0.0
23/02:30pm 11.9 10.1 3.2 55 3.9 SW 2 7 1 4 1016.0 1016.2 0.0
23/02:00pm 11.9 9.4 4.6 61 3.3 SSW 7 11 4 6 1015.9 1016.1 0.0
23/01:30pm 12.6 10.1 3.6 54 4.1 WNW 6 7 3 4 1015.9 1016.1 0.0
23/01:00pm 11.6 9.6 4.3 61 3.3 SW 4 9 2 5 1016.1 1016.3 0.0
23/12:30pm 12.3 9.9 4.5 59 3.6 SW 6 9 3 5 1016.3 1016.5 0.0
23/12:00pm 11.1 8.5 3.2 58 3.5 SW 6 9 3 5 1016.7 1016.9 0.0

Other Formats:

Comma delimited format used in spreadsheet applications
http://www.bom.gov.au/fwo/IDV60801/IDV60801.99806.axf

JavaScript Object Notation format (JSON) in row-major order
http://www.bom.gov.au/fwo/IDV60801/IDV60801.99806.json